createdAt,value
2019-02-20T00:00:43.388Z,7.01
2019-02-20T00:06:49.628Z,6.95
2019-02-20T00:12:55.471Z,6.93
2019-02-20T00:19:01.688Z,6.91
2019-02-20T00:25:09.172Z,6.87
2019-02-20T00:31:15.098Z,6.82
2019-02-20T00:37:20.984Z,6.75
2019-02-20T00:43:27.190Z,6.72
2019-02-20T00:49:37.536Z,6.68
2019-02-20T00:55:43.431Z,6.71
2019-02-20T01:01:49.340Z,6.76
2019-02-20T01:07:55.109Z,6.84
2019-02-20T01:14:01.118Z,6.92
2019-02-20T01:20:08.991Z,7.02
2019-02-20T01:26:15.182Z,7.06
2019-02-20T01:32:21.039Z,7.03
2019-02-20T01:38:26.946Z,7.00
2019-02-20T01:44:32.700Z,6.96
2019-02-20T01:50:38.490Z,6.96
2019-02-20T01:56:44.283Z,6.96
2019-02-20T02:02:50.331Z,6.94
2019-02-20T02:08:56.372Z,6.96
2019-02-20T02:15:02.220Z,6.98
2019-02-20T02:21:07.965Z,6.97
2019-02-20T02:27:13.854Z,6.97
2019-02-20T02:33:20.029Z,6.92
2019-02-20T02:39:26.138Z,6.92
2019-02-20T02:45:31.886Z,6.96
2019-02-20T02:51:37.623Z,6.98
2019-02-20T02:57:43.416Z,6.98
2019-02-20T03:03:49.266Z,6.99
2019-02-20T03:09:55.320Z,6.90
2019-02-20T03:16:01.338Z,6.82
2019-02-20T03:22:07.093Z,6.79
2019-02-20T03:28:12.944Z,6.86
2019-02-20T03:34:18.733Z,6.92
2019-02-20T03:40:24.455Z,6.88
2019-02-20T03:46:30.580Z,6.90
2019-02-20T03:52:36.866Z,6.91
2019-02-20T03:58:42.617Z,6.92
2019-02-20T04:04:48.315Z,6.93
2019-02-20T04:10:54.175Z,6.87
2019-02-20T04:16:59.985Z,6.84
2019-02-20T04:23:05.860Z,6.76
2019-02-20T04:29:11.599Z,6.77
2019-02-20T04:35:17.332Z,6.76
2019-02-20T04:41:23.195Z,6.74
2019-02-20T04:47:29.501Z,6.74
2019-02-20T04:53:35.256Z,6.82
2019-02-20T04:59:41.518Z,6.80
2019-02-20T05:05:47.506Z,6.76
2019-02-20T05:11:53.931Z,6.67
2019-02-20T05:18:00.005Z,6.50
2019-02-20T05:24:06.075Z,6.46
2019-02-20T05:30:11.820Z,6.44
2019-02-20T05:36:17.977Z,6.44
2019-02-20T05:42:24.074Z,6.44
2019-02-20T05:48:29.787Z,6.36
2019-02-20T05:54:35.998Z,6.24
2019-02-20T06:00:42.170Z,6.21
2019-02-20T06:06:49.127Z,6.20
2019-02-20T06:12:54.888Z,6.21
2019-02-20T06:19:00.816Z,6.28
2019-02-20T06:25:06.667Z,6.30
2019-02-20T06:31:12.734Z,6.37
2019-02-20T06:37:18.536Z,6.39
2019-02-20T06:43:24.542Z,6.38
2019-02-20T06:49:30.284Z,6.35
2019-02-20T06:55:36.302Z,6.34
2019-02-20T07:01:42.340Z,6.38
2019-02-20T07:08:51.651Z,6.42
2019-02-20T07:16:08.221Z,6.41
2019-02-20T07:22:45.021Z,6.40
2019-02-20T07:29:42.522Z,6.39
2019-02-20T07:35:48.430Z,6.38
2019-02-20T07:41:54.637Z,6.47
2019-02-20T07:48:01.205Z,6.67
2019-02-20T07:54:07.117Z,6.73
2019-02-20T08:00:14.635Z,6.77
2019-02-20T08:06:20.415Z,6.84
2019-02-20T08:12:26.454Z,6.94
2019-02-20T08:18:33.092Z,7.13
2019-02-20T08:24:39.360Z,7.39
2019-02-20T08:30:45.150Z,7.53
2019-02-20T08:36:50.990Z,7.63
2019-02-20T08:42:57.187Z,7.71
2019-02-20T08:49:03.044Z,7.82
2019-02-20T08:55:09.681Z,8.01
2019-02-20T09:01:15.578Z,8.19
2019-02-20T09:07:21.459Z,8.38
2019-02-20T09:13:27.279Z,8.46
2019-02-20T09:19:33.117Z,8.53
2019-02-20T09:25:41.591Z,8.61
2019-02-20T09:31:46.401Z,8.70
2019-02-20T09:37:52.269Z,8.83
2019-02-20T09:43:58.101Z,9.01
2019-02-20T09:50:03.978Z,9.18
2019-02-20T09:56:10.036Z,9.35
2019-02-20T10:02:16.054Z,9.51
2019-02-20T10:08:21.939Z,9.57
2019-02-20T10:14:27.855Z,9.60
2019-02-20T10:20:33.679Z,9.74
2019-02-20T10:26:39.421Z,9.95
2019-02-20T10:32:45.556Z,10.17
2019-02-20T10:38:51.422Z,10.40
2019-02-20T10:44:57.324Z,10.51
2019-02-20T10:51:03.427Z,10.62
2019-02-20T10:57:09.634Z,10.73
2019-02-20T11:03:15.420Z,10.88
2019-02-20T11:09:22.254Z,10.98
2019-02-20T11:15:28.846Z,11.16
2019-02-20T11:21:35.240Z,11.29
2019-02-20T11:27:42.093Z,11.48
2019-02-20T11:33:48.188Z,11.62
2019-02-20T11:39:54.602Z,11.79
2019-02-20T11:46:00.936Z,11.97
2019-02-20T11:52:06.776Z,12.11
2019-02-20T11:58:13.198Z,11.99
2019-02-20T12:04:18.981Z,12.08
2019-02-20T12:10:24.925Z,12.12
2019-02-20T12:16:31.317Z,12.18
2019-02-20T12:22:37.318Z,12.19
2019-02-20T12:28:43.636Z,12.23
2019-02-20T12:34:49.542Z,12.36
2019-02-20T12:40:55.482Z,12.52
2019-02-20T12:47:01.448Z,12.61
2019-02-20T12:53:07.445Z,12.59
2019-02-20T12:59:13.187Z,12.64
2019-02-20T13:05:19.273Z,12.86
2019-02-20T13:11:25.190Z,12.98
2019-02-20T13:17:31.099Z,12.97
2019-02-20T13:23:37.288Z,13.06
2019-02-20T13:29:43.103Z,13.14
2019-02-20T13:35:49.032Z,13.25
2019-02-20T13:41:55.318Z,13.30
2019-02-20T13:48:01.435Z,13.30
2019-02-20T13:54:07.316Z,13.29
2019-02-20T14:00:13.656Z,13.26
2019-02-20T14:06:19.476Z,13.24
2019-02-20T14:12:25.744Z,13.24
2019-02-20T14:18:31.816Z,13.34
2019-02-20T14:24:37.595Z,13.33
2019-02-20T14:30:43.362Z,13.35
2019-02-20T14:36:49.364Z,13.38
2019-02-20T14:42:55.361Z,13.25
2019-02-20T14:49:02.526Z,13.25
2019-02-20T14:55:09.988Z,13.29
2019-02-20T15:01:16.090Z,13.16
2019-02-20T15:07:22.431Z,13.09
2019-02-20T15:13:28.168Z,13.03
2019-02-20T15:19:34.027Z,12.95
2019-02-20T15:25:39.959Z,12.95
2019-02-20T15:31:45.843Z,12.92
2019-02-20T15:37:52.092Z,12.88
2019-02-20T15:43:58.148Z,12.95
2019-02-20T15:50:04.440Z,12.83
2019-02-20T15:56:14.048Z,12.76
2019-02-20T16:02:20.021Z,12.70
2019-02-20T16:08:25.900Z,12.60
2019-02-20T16:14:31.730Z,12.47
2019-02-20T16:20:37.912Z,12.32
2019-02-20T16:26:43.767Z,12.24
2019-02-20T16:32:51.207Z,12.10
2019-02-20T16:38:57.528Z,12.05
2019-02-20T16:45:03.294Z,11.95
2019-02-20T16:51:09.228Z,11.80
2019-02-20T16:57:15.366Z,11.68
2019-02-20T17:03:21.836Z,11.50
2019-02-20T17:09:27.981Z,11.43
2019-02-20T17:15:33.913Z,11.38
2019-02-20T17:21:40.041Z,11.36
2019-02-20T17:27:46.217Z,11.32
2019-02-20T17:33:52.203Z,11.27
2019-02-20T17:39:58.346Z,11.26
2019-02-20T17:46:04.502Z,11.24
2019-02-20T17:52:10.294Z,11.18
2019-02-20T17:58:16.860Z,11.11
2019-02-20T18:04:22.817Z,11.05
2019-02-20T18:10:28.914Z,10.87
2019-02-20T18:16:34.770Z,10.69
2019-02-20T18:22:40.791Z,10.61
2019-02-20T18:28:47.034Z,10.54
2019-02-20T18:34:53.220Z,10.46
2019-02-20T18:40:59.270Z,10.45
2019-02-20T18:47:05.121Z,10.34
2019-02-20T18:53:13.362Z,10.13
2019-02-20T18:59:19.303Z,9.92
2019-02-20T19:05:25.456Z,9.79
2019-02-20T19:12:08.903Z,9.69
2019-02-20T19:19:32.499Z,9.61
2019-02-20T19:26:24.688Z,9.51
2019-02-20T19:33:57.350Z,9.25
2019-02-20T19:41:04.432Z,8.99
2019-02-20T19:47:46.264Z,8.77
2019-02-20T19:54:42.223Z,8.53
2019-02-20T20:01:32.661Z,8.37
2019-02-20T20:08:11.530Z,8.30
2019-02-20T20:15:12.564Z,8.20
2019-02-20T20:22:16.235Z,8.15
2019-02-20T20:29:07.938Z,8.05
2019-02-20T20:36:27.507Z,7.90
2019-02-20T20:43:16.127Z,7.81
2019-02-20T20:50:19.377Z,7.71
2019-02-20T20:57:27.217Z,7.62
2019-02-20T21:03:33.942Z,7.47
2019-02-20T21:10:38.674Z,7.36
2019-02-20T21:17:44.561Z,7.35
2019-02-20T21:25:01.197Z,7.35
2019-02-20T21:32:18.636Z,7.31
2019-02-20T21:39:31.022Z,7.25
2019-02-20T21:46:15.435Z,7.22
2019-02-20T21:53:02.686Z,7.18
2019-02-20T22:00:12.025Z,7.20
2019-02-20T22:07:36.148Z,7.19
2019-02-20T22:14:49.564Z,7.13
2019-02-20T22:21:59.687Z,7.14
2019-02-20T22:28:45.842Z,7.13
2019-02-20T22:35:38.733Z,7.28
2019-02-20T22:42:36.942Z,7.32
2019-02-20T22:49:50.956Z,7.21
2019-02-20T22:56:44.254Z,7.08
2019-02-20T23:03:39.515Z,7.03
2019-02-20T23:10:09.882Z,6.99
2019-02-20T23:16:16.027Z,7.00
2019-02-20T23:22:22.153Z,7.00
2019-02-20T23:28:27.944Z,6.92
2019-02-20T23:34:33.963Z,6.87
2019-02-20T23:40:39.839Z,6.84
2019-02-20T23:46:46.040Z,6.88
2019-02-20T23:52:51.853Z,6.81
2019-02-20T23:58:57.896Z,6.80
